Time;durP1;ratioP1;P1;durP2;ratioP2;P2;SDS_P1;SDS_P2;PMS_P1;PMS_P2;Temp;Humidity;BMP_temperature;BMP_pressure;BME280_temperature;BME280_humidity;BME280_pressure;Samples;Min_cycle;Max_cycle;Signal;HPM_P1;HPM_P2
2024/01/27 00:00:29;;;;;;;3.07;1.20;;;5.50;99.90;;;-141.84;75.40;19334.22;5084994;28;20579;-53
2024/01/27 00:02:58;;;;;;;4.87;1.77;;;5.40;99.90;;;-141.84;77.02;20508.97;5093877;28;20250;-55
2024/01/27 00:05:28;;;;;;;4.93;1.43;;;5.40;99.90;;;-141.84;76.23;19907.31;5094955;28;20220;-58
2024/01/27 00:07:59;;;;;;;4.17;1.37;;;5.50;99.90;;;-141.84;75.54;19470.38;5094921;28;20257;-53
2024/01/27 00:10:29;;;;;;;4.67;1.97;;;5.40;99.90;;;-141.84;75.68;19529.31;5093551;28;20596;-56
2024/01/27 00:12:58;;;;;;;4.37;1.47;;;5.40;99.90;;;-141.84;75.80;19439.91;5092829;28;20294;-52
2024/01/27 00:15:26;;;;;;;4.67;1.33;;;5.40;99.90;;;-141.84;74.43;19110.72;5093659;28;20234;-54
2024/01/27 00:17:54;;;;;;;4.07;1.40;;;5.40;99.90;;;-141.84;74.13;18948.16;5096608;28;20302;-52
2024/01/27 00:20:29;;;;;;;4.60;1.20;;;5.30;99.90;;;-141.84;73.89;18942.06;5094066;28;20315;-52
2024/01/27 00:22:58;;;;;;;4.07;1.30;;;5.40;99.90;;;-141.84;75.16;19202.16;5093653;28;20238;-53
2024/01/27 00:25:26;;;;;;;4.43;1.57;;;5.30;99.90;;;-141.84;75.63;19464.28;5092561;28;20314;-51
2024/01/27 00:27:54;;;;;;;3.73;1.47;;;5.30;99.90;;;-141.84;74.52;19112.75;5093196;28;20303;-53
2024/01/27 00:30:27;;;;;;;3.80;1.13;;;5.40;99.90;;;-141.84;75.00;19244.81;5093412;28;20218;-54
2024/01/27 00:32:56;;;;;;;4.33;1.47;;;5.30;99.90;;;-141.84;75.65;19413.47;5031865;28;20698;-52
2024/01/27 00:35:29;;;;;;;4.83;1.20;;;5.30;99.90;;;-141.84;75.24;19336.25;5078797;28;20287;-58
2024/01/27 00:37:57;;;;;;;5.10;1.43;;;5.30;99.90;;;-141.84;74.97;19212.31;5092750;28;20228;-55
2024/01/27 00:40:26;;;;;;;3.77;1.40;;;5.40;99.90;;;-141.84;76.44;20141.06;5091589;28;20228;-54
2024/01/27 00:42:54;;;;;;;6.13;1.50;;;5.30;99.90;;;-141.84;75.54;19557.78;5093405;28;20220;-62
2024/01/27 00:45:26;;;;;;;3.67;1.30;;;5.30;99.90;;;-141.84;74.40;19021.31;5092248;28;20323;-62
2024/01/27 00:47:54;;;;;;;7.80;1.70;;;5.30;99.90;;;-141.84;74.47;19096.47;5093646;28;20250;-62
2024/01/27 00:50:22;;;;;;;6.23;1.70;;;5.30;99.90;;;-141.84;73.54;18870.94;5093681;28;20207;-62
2024/01/27 00:52:51;;;;;;;8.20;1.80;;;5.30;99.90;;;-141.84;73.02;18795.75;5092244;28;20578;-62
2024/01/27 00:55:23;;;;;;;4.43;1.60;;;5.30;99.90;;;-141.84;74.20;18931.91;5091943;28;20293;-62
2024/01/27 00:57:51;;;;;;;5.40;1.47;;;5.30;99.90;;;-141.84;72.90;18718.56;5092018;28;20258;-62
2024/01/27 01:00:19;;;;;;;5.33;1.70;;;5.30;99.90;;;-141.84;72.93;18771.38;5092891;28;20223;-62
2024/01/27 01:02:49;;;;;;;6.57;1.77;;;5.30;99.90;;;-141.84;72.47;18684.00;5093329;28;20200;-62
2024/01/27 01:05:17;;;;;;;3.07;1.50;;;5.30;99.90;;;-141.84;73.33;18769.34;5092413;28;20227;-61
2024/01/27 01:07:46;;;;;;;9.23;2.00;;;5.30;99.90;;;-141.84;74.59;19045.69;5084617;28;20269;-62
2024/01/27 01:10:14;;;;;;;7.00;1.90;;;5.20;99.90;;;-141.84;73.63;18830.31;5092560;28;20307;-62
2024/01/27 01:12:42;;;;;;;5.47;1.70;;;5.20;99.90;;;-141.84;73.59;18842.50;5091823;28;20284;-61
2024/01/27 01:15:11;;;;;;;6.30;1.60;;;5.20;99.90;;;-141.84;72.60;18726.69;5040725;28;20302;-61
2024/01/27 01:17:39;;;;;;;9.83;1.80;;;5.20;99.90;;;-141.84;72.18;18645.41;5092166;28;20657;-62
2024/01/27 01:20:10;;;;;;;6.13;1.67;;;5.20;99.90;;;-141.84;72.02;18629.16;5092750;28;20204;-62
2024/01/27 01:22:38;;;;;;;7.50;1.73;;;5.20;99.90;;;-141.84;72.61;18712.47;5091583;28;20284;-64
2024/01/27 01:25:08;;;;;;;8.77;1.90;;;5.20;99.90;;;-141.84;70.50;18568.19;5091667;28;20224;-61
2024/01/27 01:27:36;;;;;;;5.83;1.83;;;5.20;99.90;;;-141.84;70.27;18545.84;5091500;28;20655;-61
2024/01/27 01:30:05;;;;;;;5.57;1.70;;;5.20;99.90;;;-141.84;68.94;18466.63;5091971;28;20220;-62
2024/01/27 01:32:34;;;;;;;5.03;1.97;;;5.20;99.90;;;-141.84;69.04;18497.09;5092187;28;20199;-62
2024/01/27 01:35:02;;;;;;;7.30;1.87;;;5.20;99.90;;;-141.84;69.25;18525.53;5091986;28;20726;-61
2024/01/27 01:37:32;;;;;;;9.93;2.00;;;5.30;99.90;;;-141.84;68.84;18488.97;5092809;28;20243;-61
2024/01/27 01:40:00;;;;;;;6.97;1.67;;;5.20;99.90;;;-141.84;70.05;18562.09;5090295;28;20316;-62
2024/01/27 01:42:29;;;;;;;7.37;1.77;;;5.30;99.90;;;-141.84;70.14;18556.00;5085246;28;20315;-62
2024/01/27 01:44:57;;;;;;;6.43;2.40;;;5.20;99.90;;;-141.84;70.83;18576.31;5091857;28;20224;-61
2024/01/27 01:47:26;;;;;;;6.60;1.80;;;5.10;99.90;;;-141.84;70.15;18578.38;5091638;28;20200;-61
2024/01/27 01:49:55;;;;;;;6.17;1.77;;;5.10;99.90;;;-141.84;69.56;18505.22;5091630;28;20215;-65
2024/01/27 01:52:24;;;;;;;6.97;2.00;;;5.00;99.90;;;-141.84;70.21;18564.13;5091745;28;20249;-62
2024/01/27 01:54:53;;;;;;;7.43;1.50;;;5.00;99.90;;;-141.84;70.26;18531.63;5091870;28;20749;-61
2024/01/27 01:57:22;;;;;;;6.60;2.07;;;5.00;99.90;;;-141.84;69.49;18521.47;5090417;28;20219;-62
2024/01/27 01:59:50;;;;;;;6.87;2.17;;;5.00;99.90;;;-141.84;69.49;18478.81;5091429;28;20279;-63
2024/01/27 02:02:18;;;;;;;8.70;2.17;;;5.00;99.90;;;-141.84;70.29;18511.31;5092363;28;20215;-62
2024/01/27 02:04:47;;;;;;;8.57;2.77;;;4.90;99.90;;;-141.84;71.56;18616.97;5091045;28;20786;-63
2024/01/27 02:07:15;;;;;;;6.27;1.77;;;4.80;99.90;;;-141.84;71.55;18610.88;5090618;28;20226;-62
2024/01/27 02:09:45;;;;;;;9.37;2.03;;;4.70;99.90;;;-141.84;69.85;18505.22;5090396;28;20712;-62
2024/01/27 02:12:14;;;;;;;7.07;1.77;;;4.80;99.90;;;-141.84;70.43;18493.03;5090544;28;20223;-62
2024/01/27 02:14:47;;;;;;;4.30;1.50;;;4.70;99.90;;;-141.84;71.36;18594.63;5091250;28;20549;-62
2024/01/27 02:17:15;;;;;;;6.43;2.30;;;4.60;99.90;;;-141.84;71.48;18600.72;5089403;28;20195;-63
2024/01/27 02:19:44;;;;;;;7.87;1.70;;;4.70;99.90;;;-141.84;70.34;18505.22;5091376;28;20322;-62
2024/01/27 02:22:12;;;;;;;10.63;2.43;;;4.70;99.90;;;-141.84;69.92;18478.81;5090578;28;20230;-62
2024/01/27 02:24:42;;;;;;;7.07;2.00;;;4.70;99.90;;;-141.84;70.71;18553.97;5090161;28;20793;-61
2024/01/27 02:27:10;;;;;;;8.93;2.50;;;4.60;99.90;;;-141.84;70.58;18545.84;5091085;28;20652;-65
2024/01/27 02:29:38;;;;;;;11.67;1.80;;;4.60;99.90;;;-141.84;69.50;18517.41;5091261;28;20873;-60
2024/01/27 02:32:07;;;;;;;8.17;2.17;;;4.60;99.90;;;-141.84;70.93;18521.47;5090845;28;20274;-61
2024/01/27 02:34:35;;;;;;;8.87;2.03;;;4.60;99.90;;;-141.84;69.53;18509.28;5090958;28;20747;-62
2024/01/27 02:37:05;;;;;;;6.80;2.13;;;4.60;99.90;;;-141.84;69.16;18509.28;5090688;28;20616;-62
2024/01/27 02:39:33;;;;;;;6.37;1.87;;;4.60;99.90;;;-141.84;70.31;18503.19;5092021;28;20643;-62
2024/01/27 02:42:03;;;;;;;5.50;1.83;;;4.50;99.90;;;-141.84;71.50;18602.75;5090954;28;20731;-62
2024/01/27 02:44:32;;;;;;;7.57;1.90;;;4.40;99.90;;;-141.84;70.93;18562.09;5083903;28;20203;-62
2024/01/27 02:47:00;;;;;;;7.47;2.00;;;4.40;99.90;;;-141.84;72.78;18669.78;5091256;28;20212;-62
2024/01/27 02:49:29;;;;;;;9.33;2.03;;;4.30;99.90;;;-141.84;72.62;18645.41;5091143;28;20596;-62
2024/01/27 02:51:57;;;;;;;5.17;2.00;;;4.20;99.90;;;-141.84;72.15;18619.00;5091127;28;20269;-62
2024/01/27 02:54:27;;;;;;;8.30;2.27;;;4.20;99.90;;;-141.84;72.80;18712.47;5091233;28;20268;-62
2024/01/27 02:56:55;;;;;;;8.60;2.10;;;4.20;99.90;;;-141.84;71.77;18616.97;5090066;28;20227;-62
2024/01/27 02:59:25;;;;;;;7.03;2.10;;;4.20;99.90;;;-141.84;71.04;18545.84;5091046;28;20553;-62
2024/01/27 03:01:53;;;;;;;8.67;2.00;;;4.40;99.90;;;-141.84;70.18;18547.88;5089764;28;20648;-61
2024/01/27 03:04:22;;;;;;;6.17;1.57;;;4.30;99.90;;;-141.84;70.17;18527.56;5089677;28;20215;-62
2024/01/27 03:06:50;;;;;;;7.90;2.17;;;4.40;99.90;;;-141.84;70.74;18560.06;5090003;28;20235;-62
2024/01/27 03:09:18;;;;;;;8.30;2.13;;;4.40;99.90;;;-141.84;69.30;18503.19;5090950;28;20227;-63
2024/01/27 03:11:47;;;;;;;7.60;1.73;;;4.50;99.90;;;-141.84;69.49;18535.69;5093826;28;20203;-67
2024/01/27 03:14:15;;;;;;;8.80;1.77;;;4.50;99.90;;;-141.84;68.94;18499.13;5095467;28;20214;-65
2024/01/27 03:16:45;;;;;;;4.03;1.70;;;4.50;99.90;;;-141.84;70.17;18499.13;5095158;28;20291;-65
2024/01/27 03:19:13;;;;;;;9.97;2.23;;;4.50;99.90;;;-141.84;71.72;18602.75;5094650;28;20227;-62
2024/01/27 03:21:44;;;;;;;7.20;2.13;;;4.60;99.90;;;-141.84;70.22;18525.53;5094307;28;20340;-62
2024/01/27 03:24:13;;;;;;;7.13;2.10;;;4.50;99.90;;;-141.84;69.81;18493.03;5095112;28;20274;-63
2024/01/27 03:26:41;;;;;;;7.80;2.20;;;4.50;99.90;;;-141.84;68.69;18501.16;5095259;28;20332;-61
2024/01/27 03:29:09;;;;;;;9.57;1.67;;;4.50;99.90;;;-141.84;68.24;18446.31;5094413;28;20204;-62
2024/01/27 03:31:37;;;;;;;5.37;1.50;;;4.60;99.90;;;-141.84;70.05;18509.28;5093899;28;20266;-62
2024/01/27 03:34:07;;;;;;;3.90;1.63;;;4.50;99.90;;;-141.84;70.64;18517.41;5093460;28;20306;-62
2024/01/27 03:36:35;;;;;;;8.03;1.87;;;4.40;99.90;;;-141.84;70.85;18562.09;5093769;28;20239;-62
2024/01/27 03:39:04;;;;;;;7.10;1.70;;;4.40;99.90;;;-141.84;70.52;18525.53;5095425;28;20269;-62
2024/01/27 03:41:32;;;;;;;6.60;1.70;;;4.30;99.90;;;-141.84;70.57;18515.38;5093994;28;20192;-61
2024/01/27 03:44:00;;;;;;;9.53;1.73;;;4.30;99.90;;;-141.84;71.67;18633.22;5093886;28;20306;-61
2024/01/27 03:46:29;;;;;;;8.73;1.57;;;4.20;99.90;;;-141.84;73.22;18696.19;5094212;28;20233;-62
2024/01/27 03:48:57;;;;;;;5.30;1.83;;;4.00;99.90;;;-141.84;72.40;18625.09;5096144;28;20296;-62
2024/01/27 03:51:27;;;;;;;6.33;1.60;;;4.00;99.90;;;-141.84;72.99;18688.06;5097020;28;20231;-62
2024/01/27 03:53:55;;;;;;;8.10;1.93;;;3.90;99.90;;;-141.84;74.05;18781.53;5086947;28;20226;-61
2024/01/27 03:56:23;;;;;;;9.30;1.70;;;3.80;99.90;;;-141.84;72.79;18627.13;5093876;28;20195;-61
2024/01/27 03:58:51;;;;;;;9.13;1.70;;;3.90;99.90;;;-141.84;73.94;18791.69;5093863;28;20302;-63
2024/01/27 04:01:20;;;;;;;6.00;1.80;;;3.90;99.90;;;-141.84;75.27;19021.31;5096630;28;20580;-60
2024/01/27 04:03:48;;;;;;;8.57;1.90;;;3.70;99.90;;;-141.84;74.94;18929.88;5092799;28;20234;-61
2024/01/27 04:06:16;;;;;;;9.60;2.07;;;3.70;99.90;;;-141.84;74.28;18854.69;5092947;28;20249;-62
2024/01/27 04:08:46;;;;;;;7.07;2.27;;;3.80;99.90;;;-141.84;73.62;18773.41;5093769;28;20200;-62
2024/01/27 04:11:21;;;;;;;8.00;2.07;;;3.80;99.90;;;-141.84;74.05;18789.66;5095124;28;20194;-62
2024/01/27 04:13:51;;;;;;;6.70;1.80;;;3.80;99.90;;;-141.84;73.58;18700.25;5092696;28;20222;-61
2024/01/27 04:16:19;;;;;;;7.70;1.67;;;3.80;99.90;;;-141.84;73.89;18777.47;5092939;28;20220;-61
2024/01/27 04:18:48;;;;;;;7.67;1.70;;;3.90;99.90;;;-141.84;71.90;18592.59;5092775;28;20704;-62
2024/01/27 04:21:16;;;;;;;9.57;2.00;;;4.00;99.90;;;-141.84;72.83;18653.53;5091812;28;20315;-61
2024/01/27 04:23:46;;;;;;;10.93;2.70;;;4.00;99.90;;;-141.84;72.06;18619.00;5092667;28;20218;-62
2024/01/27 04:26:14;;;;;;;6.23;1.90;;;4.00;99.90;;;-141.84;72.51;18584.47;5093611;28;20293;-61
2024/01/27 04:28:43;;;;;;;8.43;1.90;;;4.00;99.90;;;-141.84;72.40;18616.97;5093093;28;20249;-64
2024/01/27 04:31:11;;;;;;;6.70;1.90;;;4.00;99.90;;;-141.84;73.47;18700.25;5092900;28;20221;-61
2024/01/27 04:33:39;;;;;;;7.77;2.00;;;3.90;99.90;;;-141.84;74.13;18749.03;5092827;28;20886;-62
2024/01/27 04:36:09;;;;;;;5.93;1.97;;;3.90;99.90;;;-141.84;73.45;18700.25;5093114;28;20232;-63
2024/01/27 04:38:38;;;;;;;8.70;2.63;;;3.90;99.90;;;-141.84;74.35;18826.25;5092816;28;20194;-66
2024/01/27 04:41:07;;;;;;;7.97;1.80;;;3.90;99.90;;;-141.84;74.41;18881.09;5093403;28;20196;-62
2024/01/27 04:43:35;;;;;;;9.70;2.17;;;3.90;99.90;;;-141.84;74.84;18940.03;5092878;28;20236;-63
2024/01/27 04:46:04;;;;;;;7.77;1.97;;;3.90;99.90;;;-141.84;74.89;18933.94;5093481;28;20308;-62
2024/01/27 04:48:32;;;;;;;9.50;2.10;;;3.90;99.90;;;-141.84;75.56;19084.28;5092677;28;20227;-63
2024/01/27 04:51:00;;;;;;;4.80;1.53;;;3.90;99.90;;;-141.84;75.28;19023.34;5093101;28;20595;-61
2024/01/27 04:53:28;;;;;;;6.20;2.23;;;3.90;99.90;;;-141.84;75.72;19163.53;5093938;28;20194;-62
2024/01/27 04:55:57;;;;;;;7.57;2.07;;;3.90;99.90;;;-141.84;73.43;18744.97;5091944;28;20317;-62
2024/01/27 04:58:26;;;;;;;8.37;2.00;;;4.00;99.90;;;-141.84;73.69;18747.00;5092456;28;20249;-62
2024/01/27 05:00:54;;;;;;;8.33;2.50;;;4.00;99.90;;;-141.84;72.99;18692.13;5092001;28;20280;-62
2024/01/27 05:03:23;;;;;;;8.90;2.23;;;4.00;99.90;;;-141.84;72.64;18635.25;5092803;28;20558;-63
2024/01/27 05:05:51;;;;;;;8.00;2.10;;;4.00;99.90;;;-141.84;73.64;18734.81;5092019;28;20232;-62
2024/01/27 05:08:20;;;;;;;8.10;2.60;;;4.00;99.90;;;-141.84;73.76;18759.19;5092447;28;20202;-62
2024/01/27 05:10:48;;;;;;;10.67;2.20;;;4.00;99.90;;;-141.84;75.39;19021.31;5085445;28;20226;-63
2024/01/27 05:13:16;;;;;;;6.37;2.00;;;3.90;99.90;;;-141.84;75.19;18980.66;5092700;28;20742;-62
2024/01/27 05:15:46;;;;;;;6.50;2.07;;;4.00;99.90;;;-141.84;75.77;19165.56;5091979;28;20375;-63
2024/01/27 05:18:14;;;;;;;7.80;2.03;;;3.80;99.90;;;-141.84;75.26;19061.94;5092364;28;20292;-62
2024/01/27 05:20:42;;;;;;;11.30;2.23;;;3.90;99.90;;;-141.84;75.73;19165.56;5093092;28;20233;-63
2024/01/27 05:23:11;;;;;;;7.80;2.23;;;3.90;99.90;;;-141.84;76.46;19322.03;5092909;28;20612;-62
2024/01/27 05:25:39;;;;;;;9.90;2.00;;;3.80;99.90;;;-141.84;76.07;19289.53;5091414;28;20229;-61
2024/01/27 05:28:08;;;;;;;11.67;2.10;;;3.90;99.90;;;-141.84;74.33;18848.59;5092271;28;20873;-61
2024/01/27 05:30:36;;;;;;;6.53;2.03;;;4.00;99.90;;;-141.84;74.64;18883.13;5091993;28;20664;-61
2024/01/27 05:33:09;;;;;;;6.37;2.23;;;4.10;99.90;;;-141.84;74.29;18891.25;5093417;28;20225;-62
2024/01/27 05:35:37;;;;;;;9.67;2.57;;;4.10;99.90;;;-141.84;73.52;18767.31;5091564;28;20195;-60
2024/01/27 05:38:09;;;;;;;9.40;2.40;;;4.20;99.90;;;-141.84;72.83;18692.13;5093035;28;20274;-61
2024/01/27 05:40:37;;;;;;;6.73;2.17;;;4.30;99.90;;;-141.84;73.22;18742.94;5091868;28;20250;-61
2024/01/27 05:43:09;;;;;;;8.77;2.00;;;4.30;99.90;;;-141.84;72.89;18722.63;5091793;28;20256;-62
2024/01/27 05:45:37;;;;;;;10.60;2.17;;;4.30;99.90;;;-141.84;73.38;18696.19;5092128;28;20219;-61
2024/01/27 05:48:08;;;;;;;7.23;1.97;;;4.40;99.90;;;-141.84;73.18;18712.47;5091407;28;20248;-61
2024/01/27 05:50:37;;;;;;;7.77;2.07;;;4.40;99.90;;;-141.84;72.72;18673.84;5091688;28;20898;-62
2024/01/27 05:53:05;;;;;;;6.77;2.13;;;4.30;99.90;;;-141.84;71.95;18616.97;5093049;28;20227;-61
2024/01/27 05:55:34;;;;;;;9.33;2.93;;;4.40;99.90;;;-141.84;72.27;18629.16;5090977;28;20277;-62
2024/01/27 05:58:02;;;;;;;9.50;1.87;;;4.40;99.90;;;-141.84;72.96;18694.16;5082707;28;20252;-62
2024/01/27 06:00:31;;;;;;;11.50;2.53;;;4.40;99.90;;;-141.84;74.14;18820.16;5091681;28;20239;-62
2024/01/27 06:02:59;;;;;;;7.17;2.17;;;4.40;99.90;;;-141.84;75.71;19210.28;5090886;28;20223;-62
2024/01/27 06:05:29;;;;;;;10.83;2.60;;;4.30;99.90;;;-141.84;75.65;19196.06;5091823;28;20683;-61
2024/01/27 06:07:57;;;;;;;8.10;2.17;;;4.20;99.90;;;-141.84;74.26;18887.19;5090569;28;20280;-61
2024/01/27 06:10:26;;;;;;;8.60;2.17;;;4.30;99.90;;;-141.84;73.66;18805.91;5089534;28;20612;-61
2024/01/27 06:12:54;;;;;;;10.17;2.37;;;4.30;99.90;;;-141.84;74.29;18889.22;5094672;28;20674;-61
2024/01/27 06:15:23;;;;;;;7.63;2.50;;;4.40;99.90;;;-141.84;73.58;18785.59;5089601;28;20287;-62
2024/01/27 06:17:51;;;;;;;6.60;1.90;;;4.40;99.90;;;-141.84;73.68;18761.22;5086213;28;20199;-62
2024/01/27 06:20:20;;;;;;;8.70;2.13;;;4.40;99.90;;;-141.84;73.29;18769.34;5089961;28;20195;-61
2024/01/27 06:22:49;;;;;;;8.50;2.30;;;4.50;99.90;;;-141.84;72.87;18704.31;5088636;28;20231;-62
2024/01/27 06:25:18;;;;;;;7.83;2.00;;;4.50;99.90;;;-141.84;71.13;18588.53;5087808;28;20223;-63
2024/01/27 06:27:46;;;;;;;7.90;2.57;;;4.60;99.90;;;-141.84;71.15;18594.63;5084068;28;20307;-62
2024/01/27 06:30:15;;;;;;;11.57;2.33;;;4.60;99.90;;;-141.84;71.82;18608.84;5076282;28;20926;-64
2024/01/27 06:32:44;;;;;;;7.77;2.07;;;4.60;99.90;;;-141.84;70.83;18582.44;5077340;28;20253;-62
2024/01/27 06:35:13;;;;;;;9.83;2.43;;;4.70;99.90;;;-141.84;71.18;18594.63;5028704;28;20188;-54
2024/01/27 06:37:41;;;;;;;8.67;2.27;;;4.70;99.90;;;-141.84;72.44;18677.91;5093795;28;20770;-52
2024/01/27 06:40:12;;;;;;;8.17;2.23;;;4.70;99.90;;;-141.84;71.68;18612.91;5087300;28;20247;-59
2024/01/27 06:42:40;;;;;;;12.57;2.33;;;4.60;99.90;;;-141.84;73.08;18730.75;5089110;28;20636;-61
2024/01/27 06:45:09;;;;;;;9.07;2.20;;;4.50;99.90;;;-141.84;74.29;18875.00;5095617;28;20329;-62
2024/01/27 06:47:37;;;;;;;8.20;2.30;;;4.40;99.90;;;-141.84;74.91;18980.66;5092534;28;20675;-64
2024/01/27 06:50:08;;;;;;;11.77;2.30;;;4.30;99.90;;;-141.84;75.91;19259.03;5089930;28;20287;-61
2024/01/27 06:52:36;;;;;;;11.77;2.20;;;4.20;99.90;;;-141.84;75.74;19204.19;5090219;28;20232;-62
2024/01/27 06:55:06;;;;;;;7.67;3.30;;;4.10;99.90;;;-141.84;76.44;19492.75;5089917;28;20222;-62
2024/01/27 06:57:36;;;;;;;11.40;2.60;;;4.10;99.90;;;-141.84;76.15;19415.50;5094594;28;20224;-62
2024/01/27 07:00:06;;;;;;;7.90;2.20;;;4.00;99.90;;;-141.84;75.88;19317.97;5093009;28;20242;-62
2024/01/27 07:02:35;;;;;;;8.57;2.13;;;4.00;99.90;;;-141.84;75.61;19196.06;5097602;28;20218;-60
2024/01/27 07:05:08;;;;;;;7.33;2.70;;;4.10;99.90;;;-141.84;76.46;19647.19;5104335;28;20215;-62
2024/01/27 07:07:37;;;;;;;10.13;3.53;;;4.00;99.90;;;-141.84;75.98;19336.25;5095024;28;20258;-63
2024/01/27 07:10:07;;;;;;;12.90;3.50;;;4.10;99.90;;;-141.84;74.73;19023.34;5093621;28;20267;-61
2024/01/27 07:12:37;;;;;;;13.70;4.17;;;4.20;99.90;;;-141.84;73.88;18793.72;5097751;28;20238;-63
2024/01/27 07:15:07;;;;;;;9.63;4.57;;;4.30;99.90;;;-141.84;74.70;18972.53;5096641;28;20226;-61
2024/01/27 07:17:35;;;;;;;7.57;4.30;;;4.30;99.90;;;-141.84;74.10;18944.09;5096522;28;20217;-62
2024/01/27 07:20:07;;;;;;;10.73;4.20;;;4.30;99.90;;;-141.84;75.30;19098.50;5091886;28;20203;-62
2024/01/27 07:22:35;;;;;;;8.43;3.27;;;4.30;99.90;;;-141.84;74.30;18917.66;5089529;28;20273;-62
2024/01/27 07:25:05;;;;;;;12.17;3.27;;;4.30;99.90;;;-141.84;73.39;18812.00;5090737;28;20700;-63
2024/01/27 07:27:34;;;;;;;10.37;2.97;;;4.40;99.90;;;-141.84;72.08;18661.66;5089239;28;20337;-62
2024/01/27 07:30:06;;;;;;;9.40;2.80;;;4.50;99.90;;;-141.84;72.18;18675.88;5089523;28;20227;-62
2024/01/27 07:32:34;;;;;;;7.87;2.80;;;4.60;99.90;;;-141.84;72.94;18657.59;5088667;28;20268;-62
2024/01/27 07:35:05;;;;;;;12.13;3.10;;;4.50;99.90;;;-141.84;73.94;18901.41;5089354;28;20238;-62
2024/01/27 07:37:34;;;;;;;13.30;3.97;;;4.60;99.90;;;-141.84;71.53;18598.69;5089262;28;20223;-63
2024/01/27 07:40:02;;;;;;;13.27;3.87;;;4.60;99.90;;;-141.84;72.10;18627.13;5088661;28;21588;-61
2024/01/27 07:42:30;;;;;;;12.37;2.80;;;4.60;99.90;;;-141.84;72.14;18647.44;5088678;28;20711;-61
2024/01/27 07:44:59;;;;;;;11.07;2.40;;;4.60;99.90;;;-141.84;71.46;18612.91;5090382;28;20233;-62
2024/01/27 07:47:28;;;;;;;8.87;2.97;;;4.70;99.90;;;-141.84;72.47;18686.03;5090276;28;20217;-63
2024/01/27 07:49:57;;;;;;;12.27;3.70;;;4.60;99.90;;;-141.84;72.69;18716.53;5089804;28;20239;-64
2024/01/27 07:52:25;;;;;;;10.47;3.13;;;4.60;99.90;;;-141.84;71.34;18625.09;5090160;28;20238;-63
2024/01/27 07:54:54;;;;;;;13.17;3.20;;;4.70;99.90;;;-141.84;71.44;18623.06;5090600;28;20305;-63
2024/01/27 07:57:23;;;;;;;10.63;3.43;;;4.70;99.90;;;-141.84;71.36;18572.25;5093102;28;20279;-61
2024/01/27 07:59:51;;;;;;;14.93;4.33;;;4.80;99.90;;;-141.84;71.03;18612.91;5094510;28;20278;-62
2024/01/27 08:02:19;;;;;;;10.40;3.57;;;4.80;99.90;;;-141.84;72.18;18663.69;5093974;28;20206;-62
2024/01/27 08:04:50;;;;;;;9.10;3.23;;;4.80;99.90;;;-141.84;72.71;18718.56;5086556;28;20216;-62
2024/01/27 08:07:18;;;;;;;10.37;2.83;;;4.70;99.90;;;-141.84;73.86;18844.53;5068250;28;20254;-62
2024/01/27 08:09:49;;;;;;;12.17;3.27;;;4.70;99.90;;;-141.84;72.53;18702.28;5072861;28;20296;-52
2024/01/27 08:12:17;;;;;;;10.43;3.20;;;4.70;99.90;;;-141.84;72.03;18673.84;5067026;28;20274;-48
2024/01/27 08:14:49;;;;;;;9.30;3.30;;;4.70;99.90;;;-141.84;71.54;18625.09;5070663;28;20220;-52
2024/01/27 08:17:17;;;;;;;9.73;2.87;;;4.70;99.90;;;-141.84;73.24;18767.31;5070889;28;20718;-53
2024/01/27 08:19:45;;;;;;;12.27;3.10;;;4.60;99.90;;;-141.84;73.84;18862.81;5068195;28;20276;-54
2024/01/27 08:22:15;;;;;;;9.03;3.43;;;4.70;99.90;;;-141.84;72.20;18708.41;5071798;28;20220;-51
2024/01/27 08:24:46;;;;;;;13.97;5.37;;;4.70;99.90;;;-141.84;71.92;18649.47;5073609;28;20303;-62
2024/01/27 08:27:15;;;;;;;13.27;3.67;;;4.70;99.90;;;-141.84;71.01;18586.50;5020039;28;20248;-61
2024/01/27 08:29:49;;;;;;;11.33;4.43;;;4.70;99.90;;;-141.84;71.15;18582.44;5057638;28;20207;-53
2024/01/27 08:32:18;;;;;;;7.87;4.10;;;4.80;99.90;;;-141.84;70.54;18564.13;5079455;28;20261;-54
2024/01/27 08:34:51;;;;;;;8.73;3.57;;;4.80;99.90;;;-141.84;69.52;18521.47;5068938;28;20237;-62
2024/01/27 08:37:21;;;;;;;10.37;3.10;;;4.90;99.90;;;-141.84;68.80;18537.72;5076809;28;20243;-63
2024/01/27 08:39:51;;;;;;;7.33;3.40;;;5.10;99.90;;;-141.84;69.18;18521.47;5078254;28;20621;-54
2024/01/27 08:42:20;;;;;;;11.40;4.30;;;5.10;99.90;;;-141.84;69.24;18556.00;5075493;28;20296;-54
2024/01/27 08:44:49;;;;;;;11.77;3.80;;;5.10;99.90;;;-141.84;68.71;18553.97;5076889;28;20219;-55
2024/01/27 08:47:17;;;;;;;9.53;4.13;;;5.20;99.90;;;-141.84;67.85;18521.47;5073672;28;20192;-55
2024/01/27 08:49:46;;;;;;;9.17;3.43;;;5.30;99.90;;;-141.84;68.38;18525.53;5070890;28;20235;-50
2024/01/27 08:52:14;;;;;;;9.27;3.03;;;5.30;99.90;;;-141.84;68.11;18507.25;5072504;28;20227;-51
2024/01/27 08:54:45;;;;;;;10.87;3.87;;;5.40;99.90;;;-141.84;68.22;18537.72;5072068;28;20320;-53
2024/01/27 08:57:14;;;;;;;8.03;4.00;;;5.40;99.90;;;-141.84;66.73;18503.19;5018340;28;20230;-48
2024/01/27 08:59:42;;;;;;;8.80;3.50;;;5.50;99.90;;;-141.84;67.30;18521.47;5066945;28;20215;-51
2024/01/27 09:02:10;;;;;;;10.90;3.27;;;5.50;99.90;;;-141.84;66.88;18511.31;5070101;28;20213;-55
2024/01/27 09:04:38;;;;;;;11.00;4.10;;;5.60;99.90;;;-141.84;67.14;18509.28;5066769;28;20239;-53
2024/01/27 09:07:07;;;;;;;13.23;4.70;;;5.60;99.90;;;-141.84;67.05;18486.94;5088330;28;20251;-53
2024/01/27 09:09:35;;;;;;;10.83;3.93;;;5.70;99.90;;;-141.84;66.81;18486.94;5094894;28;20298;-54
2024/01/27 09:12:05;;;;;;;11.63;4.43;;;5.80;99.90;;;-141.84;66.59;18507.25;5090213;28;20220;-53
2024/01/27 09:14:34;;;;;;;13.27;4.40;;;5.80;99.90;;;-141.84;67.44;18517.41;5090643;28;20211;-56
2024/01/27 09:17:03;;;;;;;11.03;4.03;;;5.80;99.90;;;-141.84;66.13;18513.34;5091891;28;20588;-54
2024/01/27 09:19:31;;;;;;;9.50;4.03;;;5.90;99.90;;;-141.84;66.28;18499.13;5090005;28;20223;-52
2024/01/27 09:22:00;;;;;;;11.90;4.10;;;5.90;99.90;;;-141.84;66.20;18484.91;5091829;28;20251;-56
2024/01/27 09:24:28;;;;;;;9.93;4.30;;;5.90;99.90;;;-141.84;66.27;18533.66;5090864;28;20274;-54
2024/01/27 09:26:57;;;;;;;12.33;4.50;;;5.90;99.90;;;-141.84;65.55;18491.00;5091652;28;20228;-56
2024/01/27 09:29:26;;;;;;;11.50;3.87;;;5.80;99.90;;;-141.84;65.83;18507.25;5081821;28;21114;-53
2024/01/27 09:31:54;;;;;;;11.60;4.33;;;6.00;99.90;;;-141.84;64.64;18484.91;5091483;28;20282;-51
2024/01/27 09:34:23;;;;;;;13.20;4.70;;;6.20;99.90;;;-141.84;62.65;18495.06;5089874;28;20815;-54
2024/01/27 09:36:52;;;;;;;10.73;3.83;;;6.40;99.90;;;-141.84;62.79;18491.00;5092297;28;20293;-53
2024/01/27 09:39:20;;;;;;;8.93;3.63;;;6.30;99.90;;;-141.84;64.01;18499.13;5091056;28;20624;-54
2024/01/27 09:41:50;;;;;;;9.30;3.90;;;6.30;99.90;;;-141.84;65.02;18533.66;5091334;28;20207;-54
2024/01/27 09:44:20;;;;;;;8.13;3.30;;;6.40;99.90;;;-141.84;63.17;18527.56;5090250;28;20204;-54
2024/01/27 09:46:49;;;;;;;10.40;4.27;;;6.50;99.90;;;-141.84;60.96;18541.78;5088628;28;20230;-53
2024/01/27 09:49:18;;;;;;;9.27;4.23;;;6.70;99.90;;;-141.84;60.31;18517.41;5092527;28;20216;-55
2024/01/27 09:51:47;;;;;;;16.10;4.40;;;6.80;99.90;;;-141.84;60.42;18521.47;5091860;28;20600;-56
2024/01/27 09:54:15;;;;;;;13.70;4.43;;;6.80;99.90;;;-141.84;61.59;18488.97;5090625;28;20251;-53
2024/01/27 09:56:48;;;;;;;9.20;3.50;;;6.70;99.90;;;-141.84;62.21;18519.44;5091226;28;20557;-54
2024/01/27 09:59:18;;;;;;;9.13;3.67;;;6.70;99.90;;;-141.84;62.79;18553.97;5085655;28;20278;-54
2024/01/27 10:01:48;;;;;;;11.17;4.10;;;6.70;99.90;;;-141.84;62.51;18539.75;5088440;28;20247;-54
2024/01/27 10:04:19;;;;;;;10.70;4.60;;;6.70;99.90;;;-141.84;62.88;18533.66;5090944;28;20220;-53
2024/01/27 10:06:50;;;;;;;13.50;4.40;;;6.70;99.90;;;-141.84;61.84;18497.09;5090903;28;20760;-54
2024/01/27 10:09:19;;;;;;;11.87;4.63;;;6.80;99.90;;;-141.84;61.81;18521.47;5095089;28;20215;-52
2024/01/27 10:11:48;;;;;;;11.33;4.50;;;6.80;99.90;;;-141.84;61.23;18562.09;5088582;28;20200;-53
2024/01/27 10:14:16;;;;;;;12.83;5.10;;;6.90;99.90;;;-141.84;61.81;18511.31;5088520;28;20219;-54
2024/01/27 10:16:46;;;;;;;11.10;4.27;;;6.90;99.90;;;-141.84;61.76;18511.31;5080752;28;20283;-51